createdAt,value
2024-04-26T00:02:07.214Z,6.03
2024-04-26T00:04:37.503Z,5.05
2024-04-26T00:07:07.956Z,5.80
2024-04-26T00:09:38.712Z,5.65
2024-04-26T00:12:09.454Z,5.00
2024-04-26T00:14:42.417Z,4.88
2024-04-26T00:17:13.246Z,5.50
2024-04-26T00:19:44.696Z,6.38
2024-04-26T00:22:15.067Z,6.05
2024-04-26T00:24:45.440Z,5.18
2024-04-26T00:27:17.062Z,5.78
2024-04-26T00:29:51.943Z,6.47
2024-04-26T00:32:22.223Z,4.90
2024-04-26T00:34:52.428Z,5.47
2024-04-26T00:37:22.578Z,7.18
2024-04-26T00:39:52.873Z,5.63
2024-04-26T00:42:24.135Z,5.93
2024-04-26T00:44:57.028Z,5.75
2024-04-26T00:47:27.443Z,4.88
2024-04-26T00:49:57.851Z,7.93
2024-04-26T00:52:28.047Z,5.65
2024-04-26T00:54:59.011Z,4.68
2024-04-26T00:57:29.402Z,8.23
2024-04-26T01:00:02.472Z,4.72
2024-04-26T01:02:33.033Z,5.07
2024-04-26T01:05:03.832Z,6.15
2024-04-26T01:07:34.172Z,6.07
2024-04-26T01:10:04.464Z,4.90
2024-04-26T01:12:34.705Z,4.93
2024-04-26T01:15:08.411Z,4.85
2024-04-26T01:17:39.045Z,4.88
2024-04-26T01:20:09.889Z,4.72
2024-04-26T01:22:42.991Z,6.43
2024-04-26T01:25:15.807Z,6.65
2024-04-26T01:27:46.121Z,5.55
2024-04-26T01:30:19.825Z,5.70
2024-04-26T01:32:50.234Z,4.78
2024-04-26T01:35:20.630Z,6.07
2024-04-26T01:37:50.867Z,5.75
2024-04-26T01:40:23.733Z,4.75
2024-04-26T01:42:53.996Z,4.60
2024-04-26T01:45:24.348Z,4.45
2024-04-26T01:47:54.639Z,4.97
2024-04-26T01:50:24.939Z,6.15
2024-04-26T01:52:52.810Z,4.95
2024-04-26T01:55:25.812Z,5.85
2024-04-26T01:57:53.396Z,4.45
2024-04-26T02:00:24.025Z,4.80
2024-04-26T02:02:53.707Z,4.68
2024-04-26T02:05:24.148Z,4.28
2024-04-26T02:07:51.791Z,5.00
2024-04-26T02:10:22.055Z,4.57
2024-04-26T02:12:52.389Z,4.85
2024-04-26T02:15:22.544Z,6.45
2024-04-26T02:17:50.229Z,6.22
2024-04-26T02:20:20.557Z,4.90
2024-04-26T02:22:50.841Z,5.03
2024-04-26T02:25:21.087Z,5.78
2024-04-26T02:27:51.241Z,5.17
2024-04-26T02:30:24.103Z,5.22
2024-04-26T02:32:54.418Z,4.60
2024-04-26T02:35:24.849Z,5.03
2024-04-26T02:37:56.117Z,5.43
2024-04-26T02:40:26.278Z,5.03
2024-04-26T02:42:56.510Z,4.43
2024-04-26T02:45:29.340Z,5.45
2024-04-26T02:47:59.687Z,5.13
2024-04-26T02:50:30.056Z,6.05
2024-04-26T02:53:00.275Z,5.55
2024-04-26T02:55:30.538Z,8.02
2024-04-26T02:58:00.975Z,5.20
2024-04-26T03:00:33.893Z,5.33
2024-04-26T03:03:04.277Z,6.15
2024-04-26T03:05:34.844Z,4.93
2024-04-26T03:08:05.033Z,5.55
2024-04-26T03:10:35.345Z,5.03
2024-04-26T03:13:05.859Z,5.73
2024-04-26T03:15:38.765Z,5.10
2024-04-26T03:18:09.413Z,8.27
2024-04-26T03:20:39.836Z,6.20
2024-04-26T03:23:10.123Z,6.50
2024-04-26T03:25:40.426Z,5.60
2024-04-26T03:28:10.876Z,5.50
2024-04-26T03:30:43.787Z,4.90
2024-04-26T03:33:14.146Z,6.73
2024-04-26T03:35:44.539Z,4.80
2024-04-26T03:38:16.050Z,4.67
2024-04-26T03:40:46.355Z,6.47
2024-04-26T03:43:18.486Z,6.57
2024-04-26T03:45:51.633Z,5.50
2024-04-26T03:48:22.353Z,5.50
2024-04-26T03:50:52.675Z,5.10
2024-04-26T03:53:23.093Z,6.13
2024-04-26T03:55:53.699Z,5.63
2024-04-26T03:58:24.080Z,5.33
2024-04-26T04:00:56.916Z,5.17
2024-04-26T04:03:27.411Z,5.50
2024-04-26T04:05:57.724Z,4.10
2024-04-26T04:08:28.201Z,5.83
2024-04-26T04:10:58.422Z,16.33
2024-04-26T04:13:28.630Z,8.33
2024-04-26T04:16:01.411Z,4.70
2024-04-26T04:18:31.891Z,4.67
2024-04-26T04:21:02.422Z,4.77
2024-04-26T04:23:32.805Z,5.50
2024-04-26T04:26:03.104Z,6.03
2024-04-26T04:28:33.307Z,5.30
2024-04-26T04:31:06.118Z,5.60
2024-04-26T04:33:36.540Z,5.40
2024-04-26T04:36:07.083Z,8.37
2024-04-26T04:38:37.360Z,6.07
2024-04-26T04:41:07.789Z,8.23
2024-04-26T04:43:38.156Z,5.90
2024-04-26T04:46:11.894Z,5.57
2024-04-26T04:48:42.220Z,5.83
2024-04-26T04:51:12.605Z,6.87
2024-04-26T04:53:42.924Z,6.57
2024-04-26T04:56:13.707Z,7.37
2024-04-26T04:58:43.853Z,8.63
2024-04-26T05:01:16.830Z,7.37
2024-04-26T05:03:48.346Z,6.83
2024-04-26T05:06:19.179Z,5.73
2024-04-26T05:08:49.508Z,9.73
2024-04-26T05:11:19.789Z,6.37
2024-04-26T05:13:50.012Z,6.30
2024-04-26T05:16:22.958Z,6.43
2024-04-26T05:18:53.379Z,7.30
2024-04-26T05:21:23.659Z,6.73
2024-04-26T05:23:53.844Z,6.70
2024-04-26T05:26:24.182Z,5.63
2024-04-26T05:28:54.508Z,8.02
2024-04-26T05:31:27.425Z,5.68
2024-04-26T05:33:57.879Z,6.03
2024-04-26T05:36:30.541Z,5.57
2024-04-26T05:39:01.020Z,6.07
2024-04-26T05:41:31.284Z,8.52
2024-04-26T05:44:01.553Z,5.90
2024-04-26T05:46:34.384Z,5.57
2024-04-26T05:49:04.789Z,7.10
2024-04-26T05:51:35.324Z,7.88
2024-04-26T05:54:06.373Z,7.05
2024-04-26T05:56:36.742Z,6.30
2024-04-26T05:59:07.054Z,9.10
2024-04-26T06:01:39.874Z,5.55
2024-04-26T06:04:12.091Z,7.80
2024-04-26T06:06:47.073Z,7.75
2024-04-26T06:09:20.355Z,6.72
2024-04-26T06:11:50.753Z,6.82
2024-04-26T06:14:21.121Z,5.93
2024-04-26T06:16:53.986Z,7.68
2024-04-26T06:19:24.313Z,8.15
2024-04-26T06:21:54.786Z,9.35
2024-04-26T06:24:24.964Z,7.28
2024-04-26T06:26:55.207Z,9.82
2024-04-26T06:29:26.802Z,6.85
2024-04-26T06:32:04.610Z,7.85
2024-04-26T06:34:34.966Z,9.35
2024-04-26T06:37:08.494Z,9.50
2024-04-26T06:39:38.903Z,8.48
2024-04-26T06:42:09.202Z,6.90
2024-04-26T06:44:39.872Z,7.00
2024-04-26T06:47:10.226Z,8.10
2024-04-26T06:49:40.780Z,9.02
2024-04-26T06:52:11.245Z,7.40
2024-04-26T06:54:41.477Z,7.38
2024-04-26T06:57:11.813Z,7.07
2024-04-26T06:59:43.187Z,6.40
2024-04-26T07:02:17.168Z,6.95
2024-04-26T07:04:48.071Z,7.30
2024-04-26T07:07:18.665Z,7.28
2024-04-26T07:09:48.981Z,6.82
2024-04-26T07:12:19.439Z,5.80
2024-04-26T07:14:49.874Z,7.63
2024-04-26T07:17:22.766Z,6.22
2024-04-26T07:19:53.353Z,6.55
2024-04-26T07:22:23.760Z,6.22
2024-04-26T07:24:57.796Z,6.82
2024-04-26T07:27:28.069Z,5.90
2024-04-26T07:29:58.353Z,5.95
2024-04-26T07:32:31.520Z,6.05
2024-04-26T07:35:01.807Z,5.13
2024-04-26T07:37:32.138Z,4.13
2024-04-26T07:40:02.580Z,5.65
2024-04-26T07:42:32.801Z,4.93
2024-04-26T07:45:03.576Z,6.28
2024-04-26T07:47:36.639Z,5.80
2024-04-26T07:50:07.036Z,6.00
2024-04-26T07:52:37.465Z,4.65
2024-04-26T07:55:08.519Z,4.28
2024-04-26T07:57:38.790Z,5.28
2024-04-26T08:00:11.420Z,4.32
2024-04-26T08:02:46.084Z,5.20
2024-04-26T08:05:16.489Z,6.93
2024-04-26T08:07:46.893Z,6.30
2024-04-26T08:10:17.339Z,4.35
2024-04-26T08:12:47.665Z,5.38
2024-04-26T08:15:18.248Z,5.70
2024-04-26T08:17:51.313Z,6.32
2024-04-26T08:20:21.575Z,4.90
2024-04-26T08:22:51.867Z,5.88
2024-04-26T08:25:27.092Z,5.82
2024-04-26T08:27:59.445Z,6.82
2024-04-26T08:30:31.540Z,4.78
2024-04-26T08:33:06.862Z,7.88
2024-04-26T08:35:39.296Z,6.32
2024-04-26T08:38:09.763Z,5.45
2024-04-26T08:40:40.045Z,6.13
2024-04-26T08:43:10.558Z,4.50
2024-04-26T08:45:42.001Z,5.40
2024-04-26T08:48:15.835Z,4.40
2024-04-26T08:50:48.804Z,4.03
2024-04-26T08:53:20.025Z,3.63
2024-04-26T08:55:50.505Z,5.60
2024-04-26T08:58:21.541Z,4.32
2024-04-26T09:00:52.156Z,4.05
2024-04-26T09:03:25.276Z,6.35
2024-04-26T09:05:55.932Z,4.78
2024-04-26T09:08:26.239Z,3.85
2024-04-26T09:10:56.765Z,5.97
2024-04-26T09:13:27.948Z,5.75
2024-04-26T09:15:58.145Z,4.38
2024-04-26T09:18:31.117Z,5.22
2024-04-26T09:21:03.888Z,4.38
2024-04-26T09:23:34.368Z,5.18
2024-04-26T09:26:08.346Z,5.72
2024-04-26T09:28:41.068Z,4.22
2024-04-26T09:31:11.959Z,3.55
2024-04-26T09:33:45.663Z,4.57
2024-04-26T09:36:16.180Z,3.30
2024-04-26T09:38:49.839Z,5.25
2024-04-26T09:41:21.238Z,3.50
2024-04-26T09:43:51.617Z,3.88
2024-04-26T09:46:25.059Z,3.63
2024-04-26T09:48:58.277Z,3.55
2024-04-26T09:51:35.067Z,3.13
2024-04-26T09:54:13.137Z,4.13
2024-04-26T09:56:45.725Z,4.30
2024-04-26T09:59:16.175Z,4.57
2024-04-26T10:01:46.977Z,3.22
2024-04-26T10:04:20.271Z,3.63
2024-04-26T10:06:50.655Z,4.15
2024-04-26T10:09:23.957Z,3.92
2024-04-26T10:11:55.461Z,3.92
2024-04-26T10:14:33.571Z,5.05
2024-04-26T10:17:11.098Z,3.38
2024-04-26T10:19:45.221Z,4.68
2024-04-26T10:22:16.076Z,3.42
2024-04-26T10:24:49.500Z,4.95
2024-04-26T10:27:29.990Z,3.00
2024-04-26T10:30:01.578Z,2.45
2024-04-26T10:32:32.622Z,2.70
2024-04-26T10:35:05.608Z,3.30
2024-04-26T10:37:35.983Z,3.53
2024-04-26T10:40:11.197Z,2.83
2024-04-26T10:42:42.322Z,2.90
2024-04-26T10:45:12.656Z,3.13
2024-04-26T10:47:43.425Z,3.55
2024-04-26T10:50:17.881Z,2.88
2024-04-26T10:52:48.038Z,2.97
2024-04-26T10:55:19.561Z,2.70
2024-04-26T10:57:57.991Z,2.33
2024-04-26T11:00:28.182Z,3.30
2024-04-26T11:02:58.699Z,3.47
2024-04-26T11:05:31.605Z,2.47
2024-04-26T11:08:02.174Z,2.28
2024-04-26T11:10:32.483Z,1.50
2024-04-26T11:13:02.791Z,2.03
2024-04-26T11:15:33.116Z,2.80
2024-04-26T11:18:03.727Z,2.42
2024-04-26T11:20:36.704Z,2.58
2024-04-26T11:23:07.132Z,3.55
2024-04-26T11:25:37.285Z,2.92
2024-04-26T11:28:07.663Z,3.03
2024-04-26T11:30:37.821Z,2.25
2024-04-26T11:33:12.357Z,2.72
2024-04-26T11:35:49.303Z,3.15
2024-04-26T11:38:19.575Z,2.75
2024-04-26T11:40:49.811Z,10.63
2024-04-26T11:43:20.054Z,3.10
2024-04-26T11:45:50.296Z,2.22
2024-04-26T11:48:21.126Z,2.47
2024-04-26T11:50:56.386Z,1.80
2024-04-26T11:53:27.015Z,1.58
2024-04-26T11:55:58.806Z,1.80
2024-04-26T11:58:29.096Z,1.95
2024-04-26T12:00:59.325Z,1.42
2024-04-26T12:03:29.773Z,1.45
2024-04-26T12:06:02.883Z,1.77
2024-04-26T12:08:38.817Z,2.13
2024-04-26T12:11:12.309Z,2.20
2024-04-26T12:13:46.568Z,2.13
2024-04-26T12:16:17.100Z,4.13
2024-04-26T12:18:47.841Z,5.25
2024-04-26T12:21:25.141Z,1.40
2024-04-26T12:23:57.563Z,1.90
2024-04-26T12:26:29.303Z,2.08
2024-04-26T12:29:02.066Z,4.07
2024-04-26T12:31:33.441Z,2.15
2024-04-26T12:34:03.795Z,1.65
2024-04-26T12:36:38.588Z,2.10
2024-04-26T12:39:09.988Z,2.38
2024-04-26T12:41:44.670Z,3.03
2024-04-26T12:44:16.074Z,2.08
2024-04-26T12:46:46.573Z,1.45
2024-04-26T12:49:19.299Z,1.45
2024-04-26T13:09:46.444Z,1.27
2024-04-26T13:12:16.897Z,1.10
2024-04-26T13:14:47.355Z,2.45
2024-04-26T13:17:17.809Z,2.05
2024-04-26T13:19:48.453Z,2.00
2024-04-26T13:22:19.842Z,1.30
2024-04-26T13:24:52.846Z,1.13
2024-04-26T13:27:23.198Z,1.60
2024-04-26T13:29:53.409Z,1.42
2024-04-26T13:32:25.440Z,1.40
2024-04-26T13:34:58.691Z,2.25
2024-04-26T13:37:30.814Z,1.77
2024-04-26T13:40:03.704Z,1.40
2024-04-26T13:42:34.012Z,1.23
2024-04-26T13:45:04.448Z,1.00
2024-04-26T13:47:34.882Z,1.48
2024-04-26T13:50:05.883Z,1.85
2024-04-26T13:52:35.948Z,0.65
2024-04-26T13:55:09.383Z,1.10
2024-04-26T13:57:40.149Z,2.70
2024-04-26T14:00:11.170Z,0.82
2024-04-26T14:02:41.442Z,1.75
2024-04-26T14:05:15.030Z,2.25
2024-04-26T14:07:45.153Z,0.80
2024-04-26T14:10:17.833Z,0.95
2024-04-26T14:12:47.785Z,1.67
2024-04-26T14:15:19.959Z,0.93
2024-04-26T14:17:51.193Z,2.63
2024-04-26T14:20:21.753Z,0.95
2024-04-26T14:22:52.268Z,0.95
2024-04-26T14:25:25.028Z,1.45
2024-04-26T14:27:54.903Z,0.60
2024-04-26T14:30:24.934Z,3.03
2024-04-26T14:32:57.078Z,0.95
2024-04-26T14:35:27.202Z,1.10
2024-04-26T14:37:57.036Z,0.68
2024-04-26T14:40:29.566Z,0.80
2024-04-26T14:42:59.479Z,0.93
2024-04-26T14:45:29.383Z,0.63
2024-04-26T14:47:59.399Z,0.55
2024-04-26T14:50:29.419Z,0.77
2024-04-26T14:52:59.409Z,0.57
2024-04-26T14:55:31.945Z,1.05
2024-04-26T14:58:01.803Z,0.85
2024-04-26T15:00:31.745Z,0.50
2024-04-26T15:03:01.697Z,0.50
2024-04-26T15:05:31.558Z,0.55
2024-04-26T15:08:01.517Z,1.00
2024-04-26T15:10:34.349Z,0.55
2024-04-26T15:13:04.419Z,0.77
2024-04-26T15:15:34.302Z,1.30
2024-04-26T15:18:04.203Z,1.30
2024-04-26T15:20:34.931Z,1.05
2024-04-26T15:23:04.781Z,1.17
2024-04-26T15:25:37.394Z,1.90
2024-04-26T15:28:07.961Z,1.35
2024-04-26T15:30:38.567Z,0.68
2024-04-26T15:33:09.093Z,1.20
2024-04-26T15:35:37.218Z,0.40
2024-04-26T15:38:07.649Z,0.80
2024-04-26T15:40:40.493Z,1.20
2024-04-26T15:43:10.689Z,1.20
2024-04-26T15:45:40.868Z,1.48
2024-04-26T15:48:11.261Z,0.82
2024-04-26T15:50:41.491Z,1.58
2024-04-26T15:53:11.743Z,0.70
2024-04-26T15:55:44.624Z,1.77
2024-04-26T15:58:14.927Z,0.95
2024-04-26T16:00:45.255Z,0.45
2024-04-26T16:03:15.475Z,1.23
2024-04-26T16:05:45.701Z,0.98
2024-04-26T16:08:15.941Z,0.82
2024-04-26T16:10:49.108Z,1.30
2024-04-26T16:13:19.460Z,0.88
2024-04-26T16:15:49.756Z,2.70
2024-04-26T16:18:20.006Z,0.77
2024-04-26T16:20:50.389Z,1.30
2024-04-26T16:23:20.668Z,1.35
2024-04-26T16:25:53.607Z,1.30
2024-04-26T16:28:23.953Z,0.70
2024-04-26T16:30:54.318Z,0.93
2024-04-26T16:33:24.662Z,1.75
2024-04-26T16:35:55.000Z,0.95
2024-04-26T16:38:25.259Z,0.68
2024-04-26T16:40:58.230Z,1.35
2024-04-26T16:43:28.678Z,0.85
2024-04-26T16:45:59.035Z,1.48
2024-04-26T16:48:29.814Z,1.08
2024-04-26T16:51:00.128Z,0.80
2024-04-26T16:53:30.375Z,1.20
2024-04-26T16:56:03.536Z,0.98
2024-04-26T16:58:34.077Z,1.67
2024-04-26T17:01:08.046Z,1.23
2024-04-26T17:03:38.508Z,2.03
2024-04-26T17:06:09.835Z,1.20
2024-04-26T17:08:40.361Z,1.10
2024-04-26T17:11:13.205Z,0.75
2024-04-26T17:13:43.462Z,0.77
2024-04-26T17:16:13.811Z,1.73
2024-04-26T17:18:44.596Z,0.95
2024-04-26T17:21:14.938Z,1.42
2024-04-26T17:23:45.252Z,1.75
2024-04-26T17:26:19.278Z,1.45
2024-04-26T17:28:50.524Z,2.30
2024-04-26T17:31:20.797Z,2.13
2024-04-26T17:33:52.616Z,2.40
2024-04-26T17:36:23.231Z,0.77
2024-04-26T17:38:53.438Z,1.90
2024-04-26T17:41:26.322Z,2.05
2024-04-26T17:43:56.865Z,1.42
2024-04-26T17:46:27.249Z,3.35
2024-04-26T17:48:57.674Z,1.20
2024-04-26T17:51:27.926Z,1.88
2024-04-26T17:53:58.886Z,1.92
2024-04-26T17:56:31.796Z,1.77
2024-04-26T17:59:04.165Z,3.55
2024-04-26T18:01:35.092Z,2.05
2024-04-26T18:04:05.397Z,2.03
2024-04-26T18:06:35.836Z,2.92
2024-04-26T18:09:06.162Z,4.03
2024-04-26T18:11:39.121Z,2.38
2024-04-26T18:14:09.378Z,1.65
2024-04-26T18:16:39.667Z,2.92
2024-04-26T18:19:09.939Z,4.47
2024-04-26T18:21:42.151Z,5.28
2024-04-26T18:24:12.657Z,3.47
2024-04-26T18:26:45.507Z,3.83
2024-04-26T18:29:16.768Z,2.63
2024-04-26T18:31:47.034Z,3.28
2024-04-26T18:34:17.194Z,6.38
2024-04-26T18:36:47.454Z,2.50
2024-04-26T18:39:17.752Z,3.00
2024-04-26T18:41:50.616Z,2.90
2024-04-26T18:44:23.232Z,3.13
2024-04-26T18:46:54.999Z,2.90
2024-04-26T18:49:25.401Z,2.70
2024-04-26T18:51:55.635Z,3.40
2024-04-26T18:54:26.099Z,2.95
2024-04-26T18:56:59.039Z,2.95
2024-04-26T18:59:29.404Z,3.40
2024-04-26T19:02:00.232Z,3.20
2024-04-26T19:04:30.803Z,2.83
2024-04-26T19:07:01.390Z,3.03
2024-04-26T19:09:31.725Z,2.67
2024-04-26T19:12:05.366Z,4.57
2024-04-26T19:14:35.638Z,4.25
2024-04-26T19:17:06.736Z,3.40
2024-04-26T19:19:37.315Z,2.50
2024-04-26T19:22:07.568Z,3.35
2024-04-26T19:24:37.909Z,3.28
2024-04-26T19:27:10.900Z,3.88
2024-04-26T19:29:41.325Z,2.67
2024-04-26T19:32:12.053Z,2.88
2024-04-26T19:34:42.659Z,2.88
2024-04-26T19:37:12.860Z,3.00
2024-04-26T19:39:43.704Z,2.83
2024-04-26T19:42:16.718Z,1.92
2024-04-26T19:44:47.051Z,3.58
2024-04-26T19:47:17.386Z,2.85
2024-04-26T19:49:48.010Z,2.85
2024-04-26T19:52:37.378Z,3.58
2024-04-26T19:55:20.118Z,3.35
2024-04-26T19:57:53.265Z,3.25
2024-04-26T20:00:24.478Z,4.80
2024-04-26T20:02:55.195Z,2.88
2024-04-26T20:05:25.617Z,3.97
2024-04-26T20:07:56.053Z,4.05
2024-04-26T20:10:26.577Z,3.78
2024-04-26T20:12:59.411Z,3.25
2024-04-26T20:15:29.633Z,5.03
2024-04-26T20:18:00.109Z,3.58
2024-04-26T20:20:30.352Z,3.45
2024-04-26T20:23:00.892Z,2.70
2024-04-26T20:25:31.120Z,2.78
2024-04-26T20:28:04.102Z,2.83
2024-04-26T20:30:34.324Z,2.88
2024-04-26T20:33:04.672Z,2.97
2024-04-26T20:35:35.085Z,2.15
2024-04-26T20:38:05.453Z,3.95
2024-04-26T20:40:36.017Z,2.53
2024-04-26T20:43:08.973Z,2.90
2024-04-26T20:45:39.251Z,3.15
2024-04-26T20:48:10.552Z,2.95
2024-04-26T20:50:40.914Z,2.55
2024-04-26T20:53:11.452Z,2.95
2024-04-26T20:55:41.731Z,2.30
2024-04-26T20:58:14.654Z,2.92
2024-04-26T21:00:45.019Z,3.42
2024-04-26T21:03:15.247Z,2.60
2024-04-26T21:05:45.554Z,3.38
2024-04-26T21:08:15.809Z,2.72
2024-04-26T21:10:46.175Z,2.50
2024-04-26T21:13:19.151Z,3.67
2024-04-26T21:15:49.608Z,2.53
2024-04-26T21:18:19.864Z,2.90
2024-04-26T21:20:50.403Z,3.22
2024-04-26T21:23:20.657Z,3.47
2024-04-26T21:25:50.875Z,4.22
2024-04-26T21:28:23.767Z,2.83
2024-04-26T21:30:54.079Z,3.22
2024-04-26T21:33:24.626Z,4.00
2024-04-26T21:35:54.859Z,4.60
2024-04-26T21:38:25.097Z,3.92
2024-04-26T21:40:55.312Z,4.18
2024-04-26T21:43:28.260Z,4.05
2024-04-26T21:45:58.467Z,4.35
2024-04-26T21:48:28.788Z,4.82
2024-04-26T21:50:59.184Z,3.40
2024-04-26T21:53:30.927Z,3.92
2024-04-26T21:56:01.327Z,4.38
2024-04-26T21:58:34.336Z,3.38
2024-04-26T22:01:05.149Z,3.70
2024-04-26T22:03:35.354Z,3.67
2024-04-26T22:06:05.611Z,4.25
2024-04-26T22:08:35.896Z,3.38
2024-04-26T22:11:06.227Z,3.78
2024-04-26T22:13:39.131Z,3.65
2024-04-26T22:16:09.563Z,3.92
2024-04-26T22:18:40.088Z,3.85
2024-04-26T22:21:10.309Z,3.72
2024-04-26T22:23:40.619Z,3.28
2024-04-26T22:26:10.918Z,3.50
2024-04-26T22:28:43.850Z,2.95
2024-04-26T22:31:19.214Z,5.32
2024-04-26T22:33:49.749Z,2.85
2024-04-26T22:36:20.809Z,3.80
2024-04-26T22:38:51.077Z,5.68
2024-04-26T22:41:25.750Z,4.47
2024-04-26T22:43:59.040Z,4.30
2024-04-26T22:46:32.266Z,4.65
2024-04-26T22:49:06.848Z,5.72
2024-04-26T22:51:43.881Z,3.97
2024-04-26T22:54:14.033Z,3.25
2024-04-26T22:56:44.263Z,3.65
2024-04-26T22:59:17.511Z,4.30
2024-04-26T23:01:47.796Z,3.55
2024-04-26T23:04:17.983Z,4.18
2024-04-26T23:06:48.307Z,5.55
2024-04-26T23:09:18.557Z,4.13
2024-04-26T23:11:48.777Z,3.83
2024-04-26T23:14:21.605Z,6.25
2024-04-26T23:16:51.992Z,4.72
2024-04-26T23:19:25.322Z,4.22
2024-04-26T23:21:56.514Z,3.47
2024-04-26T23:24:26.777Z,3.75
2024-04-26T23:26:57.122Z,4.45
2024-04-26T23:29:29.958Z,2.90
2024-04-26T23:32:00.361Z,3.53
2024-04-26T23:34:30.808Z,3.10
2024-04-26T23:37:01.084Z,4.90
2024-04-26T23:39:31.315Z,3.33
2024-04-26T23:42:01.638Z,3.05
2024-04-26T23:44:34.413Z,3.17
2024-04-26T23:47:04.752Z,3.92
2024-04-26T23:49:35.087Z,4.97
2024-04-26T23:52:05.342Z,3.00
2024-04-26T23:54:35.727Z,3.28
2024-04-26T23:57:05.969Z,3.15
2024-04-26T23:59:38.823Z,3.28
